sensor_id;sensor_type;location;lat;lon;timestamp;pressure;altitude;pressure_sealevel;temperature;humidity
27202;BME280;14717;46.924;15.474;2022-07-18T00:01:37;98753.50;;;16.90;96.82
27202;BME280;14717;46.924;15.474;2022-07-18T00:04:02;98752.47;;;16.86;97.26
27202;BME280;14717;46.924;15.474;2022-07-18T00:06:28;98753.00;;;16.75;96.80
27202;BME280;14717;46.924;15.474;2022-07-18T00:08:53;98752.09;;;16.79;97.94
27202;BME280;14717;46.924;15.474;2022-07-18T00:11:19;98752.59;;;16.81;97.35
27202;BME280;14717;46.924;15.474;2022-07-18T00:13:45;98753.19;;;16.92;97.27
27202;BME280;14717;46.924;15.474;2022-07-18T00:16:10;98758.38;;;16.85;95.58
27202;BME280;14717;46.924;15.474;2022-07-18T00:18:36;98755.78;;;16.88;96.43
27202;BME280;14717;46.924;15.474;2022-07-18T00:21:01;98757.00;;;16.96;96.00
27202;BME280;14717;46.924;15.474;2022-07-18T00:23:27;98748.63;;;17.09;94.97
27202;BME280;14717;46.924;15.474;2022-07-18T00:25:52;98753.38;;;17.08;94.64
27202;BME280;14717;46.924;15.474;2022-07-18T00:28:17;98760.94;;;17.08;93.59
27202;BME280;14717;46.924;15.474;2022-07-18T00:30:43;98757.63;;;17.06;93.72
27202;BME280;14717;46.924;15.474;2022-07-18T00:33:08;98758.66;;;17.23;93.74
27202;BME280;14717;46.924;15.474;2022-07-18T00:35:34;98755.00;;;17.36;92.93
27202;BME280;14717;46.924;15.474;2022-07-18T00:38:00;98763.06;;;17.38;92.60
27202;BME280;14717;46.924;15.474;2022-07-18T00:40:27;98755.03;;;17.23;91.47
27202;BME280;14717;46.924;15.474;2022-07-18T00:42:53;98759.69;;;17.14;91.81
27202;BME280;14717;46.924;15.474;2022-07-18T00:45:18;98762.50;;;17.14;92.10
27202;BME280;14717;46.924;15.474;2022-07-18T00:47:44;98765.06;;;16.97;91.79
27202;BME280;14717;46.924;15.474;2022-07-18T00:50:09;98765.50;;;16.64;95.21
27202;BME280;14717;46.924;15.474;2022-07-18T00:52:35;98766.97;;;16.62;96.81
27202;BME280;14717;46.924;15.474;2022-07-18T00:55:03;98769.13;;;16.64;96.78
27202;BME280;14717;46.924;15.474;2022-07-18T00:57:29;98758.47;;;16.66;96.97
27202;BME280;14717;46.924;15.474;2022-07-18T00:59:54;98762.41;;;16.65;96.11
27202;BME280;14717;46.924;15.474;2022-07-18T01:02:38;98764.78;;;16.59;97.29
27202;BME280;14717;46.924;15.474;2022-07-18T01:05:06;98763.31;;;16.61;97.39
27202;BME280;14717;46.924;15.474;2022-07-18T01:07:32;98773.56;;;16.65;97.52
27202;BME280;14717;46.924;15.474;2022-07-18T01:09:57;98773.97;;;16.72;97.40
27202;BME280;14717;46.924;15.474;2022-07-18T01:12:25;98771.19;;;16.86;97.44
27202;BME280;14717;46.924;15.474;2022-07-18T01:14:51;98768.41;;;16.99;97.02
27202;BME280;14717;46.924;15.474;2022-07-18T01:17:17;98763.84;;;17.03;95.35
27202;BME280;14717;46.924;15.474;2022-07-18T01:19:44;98756.59;;;17.02;95.57
27202;BME280;14717;46.924;15.474;2022-07-18T01:22:10;98763.22;;;16.93;95.87
27202;BME280;14717;46.924;15.474;2022-07-18T01:24:37;98758.91;;;16.60;96.08
27202;BME280;14717;46.924;15.474;2022-07-18T01:27:03;98767.25;;;16.73;96.65
27202;BME280;14717;46.924;15.474;2022-07-18T01:29:28;98765.09;;;16.84;95.56
27202;BME280;14717;46.924;15.474;2022-07-18T01:31:54;98764.38;;;16.65;96.24
27202;BME280;14717;46.924;15.474;2022-07-18T01:34:23;98761.47;;;16.43;97.82
27202;BME280;14717;46.924;15.474;2022-07-18T01:36:48;98763.78;;;16.23;98.61
27202;BME280;14717;46.924;15.474;2022-07-18T01:39:14;98760.56;;;16.16;98.45
27202;BME280;14717;46.924;15.474;2022-07-18T01:41:39;98753.94;;;16.12;98.89
27202;BME280;14717;46.924;15.474;2022-07-18T01:44:06;98766.75;;;16.45;98.00
27202;BME280;14717;46.924;15.474;2022-07-18T01:46:32;98767.38;;;16.55;96.83
27202;BME280;14717;46.924;15.474;2022-07-18T01:48:58;98766.84;;;16.66;95.71
27202;BME280;14717;46.924;15.474;2022-07-18T01:51:23;98767.25;;;16.73;95.66
27202;BME280;14717;46.924;15.474;2022-07-18T01:53:57;98763.00;;;16.76;94.93
27202;BME280;14717;46.924;15.474;2022-07-18T01:56:24;98762.72;;;16.77;94.68
27202;BME280;14717;46.924;15.474;2022-07-18T01:58:50;98763.97;;;16.85;94.40
27202;BME280;14717;46.924;15.474;2022-07-18T02:01:15;98763.22;;;16.66;93.86
27202;BME280;14717;46.924;15.474;2022-07-18T02:03:41;98762.09;;;16.54;94.58
27202;BME280;14717;46.924;15.474;2022-07-18T02:06:06;98766.00;;;16.53;96.13
27202;BME280;14717;46.924;15.474;2022-07-18T02:08:32;98759.91;;;16.64;96.04
27202;BME280;14717;46.924;15.474;2022-07-18T02:10:57;98751.25;;;16.65;95.09
27202;BME280;14717;46.924;15.474;2022-07-18T02:13:23;98755.09;;;16.69;95.10
27202;BME280;14717;46.924;15.474;2022-07-18T02:15:49;98757.22;;;16.72;95.29
27202;BME280;14717;46.924;15.474;2022-07-18T02:18:15;98752.81;;;16.71;94.39
27202;BME280;14717;46.924;15.474;2022-07-18T02:20:40;98758.47;;;16.66;94.08
27202;BME280;14717;46.924;15.474;2022-07-18T02:23:06;98757.88;;;16.69;93.52
27202;BME280;14717;46.924;15.474;2022-07-18T02:25:33;98753.00;;;16.75;93.89
27202;BME280;14717;46.924;15.474;2022-07-18T02:27:59;98759.41;;;16.62;93.07
27202;BME280;14717;46.924;15.474;2022-07-18T02:30:24;98757.94;;;16.38;94.08
27202;BME280;14717;46.924;15.474;2022-07-18T02:32:50;98761.63;;;16.20;95.77
27202;BME280;14717;46.924;15.474;2022-07-18T02:35:16;98758.25;;;16.05;95.91
27202;BME280;14717;46.924;15.474;2022-07-18T02:37:43;98750.50;;;16.02;95.96
27202;BME280;14717;46.924;15.474;2022-07-18T02:40:10;98750.69;;;16.05;95.09
27202;BME280;14717;46.924;15.474;2022-07-18T02:42:36;98758.63;;;16.30;95.63
27202;BME280;14717;46.924;15.474;2022-07-18T02:45:04;98760.50;;;16.34;94.55
27202;BME280;14717;46.924;15.474;2022-07-18T02:47:29;98754.13;;;16.47;94.21
27202;BME280;14717;46.924;15.474;2022-07-18T02:49:55;98753.72;;;16.54;93.09
27202;BME280;14717;46.924;15.474;2022-07-18T02:52:20;98753.91;;;16.44;93.37
27202;BME280;14717;46.924;15.474;2022-07-18T02:54:46;98755.34;;;16.28;93.91
27202;BME280;14717;46.924;15.474;2022-07-18T02:57:12;98763.69;;;15.96;95.71
27202;BME280;14717;46.924;15.474;2022-07-18T02:59:37;98756.91;;;16.02;96.49
27202;BME280;14717;46.924;15.474;2022-07-18T03:02:03;98762.31;;;16.12;95.81
27202;BME280;14717;46.924;15.474;2022-07-18T03:04:28;98759.13;;;15.87;96.68
27202;BME280;14717;46.924;15.474;2022-07-18T03:06:53;98760.81;;;15.70;97.71
27202;BME280;14717;46.924;15.474;2022-07-18T03:09:20;98759.16;;;15.69;97.29
27202;BME280;14717;46.924;15.474;2022-07-18T03:11:46;98764.59;;;15.60;96.88
27202;BME280;14717;46.924;15.474;2022-07-18T03:14:12;98762.28;;;15.49;97.88
27202;BME280;14717;46.924;15.474;2022-07-18T03:16:37;98765.28;;;15.52;97.69
27202;BME280;14717;46.924;15.474;2022-07-18T03:19:03;98759.63;;;15.39;99.34
27202;BME280;14717;46.924;15.474;2022-07-18T03:21:29;98765.66;;;15.46;98.35
27202;BME280;14717;46.924;15.474;2022-07-18T03:23:55;98768.19;;;15.61;97.43
27202;BME280;14717;46.924;15.474;2022-07-18T03:26:21;98767.84;;;15.49;97.71
27202;BME280;14717;46.924;15.474;2022-07-18T03:28:46;98765.56;;;15.51;96.81
27202;BME280;14717;46.924;15.474;2022-07-18T03:31:11;98762.56;;;15.47;97.67
27202;BME280;14717;46.924;15.474;2022-07-18T03:33:38;98771.94;;;15.38;97.73
27202;BME280;14717;46.924;15.474;2022-07-18T03:36:04;98766.38;;;15.38;97.49
27202;BME280;14717;46.924;15.474;2022-07-18T03:38:29;98769.22;;;15.33;98.96
27202;BME280;14717;46.924;15.474;2022-07-18T03:40:55;98765.78;;;15.54;99.64
27202;BME280;14717;46.924;15.474;2022-07-18T03:43:20;98768.91;;;15.53;98.92
27202;BME280;14717;46.924;15.474;2022-07-18T03:45:46;98785.06;;;15.51;98.85
27202;BME280;14717;46.924;15.474;2022-07-18T03:48:12;98774.84;;;15.46;99.64
27202;BME280;14717;46.924;15.474;2022-07-18T03:50:38;98783.75;;;15.48;98.54
27202;BME280;14717;46.924;15.474;2022-07-18T03:53:04;98776.19;;;15.49;100.00
27202;BME280;14717;46.924;15.474;2022-07-18T03:55:29;98782.75;;;15.58;98.53
27202;BME280;14717;46.924;15.474;2022-07-18T03:57:54;98778.53;;;15.42;99.44
27202;BME280;14717;46.924;15.474;2022-07-18T04:00:20;98786.75;;;15.52;98.35
27202;BME280;14717;46.924;15.474;2022-07-18T04:02:46;98783.97;;;15.52;99.36
27202;BME280;14717;46.924;15.474;2022-07-18T04:05:12;98786.97;;;15.37;100.00
27202;BME280;14717;46.924;15.474;2022-07-18T04:07:38;98781.91;;;15.39;100.00
27202;BME280;14717;46.924;15.474;2022-07-18T04:10:05;98783.44;;;15.50;100.00
27202;BME280;14717;46.924;15.474;2022-07-18T04:12:31;98786.38;;;15.58;99.78
27202;BME280;14717;46.924;15.474;2022-07-18T04:14:57;98776.03;;;15.59;100.00
27202;BME280;14717;46.924;15.474;2022-07-18T04:17:22;98781.88;;;15.75;99.07
27202;BME280;14717;46.924;15.474;2022-07-18T04:19:48;98785.38;;;15.68;99.33
27202;BME280;14717;46.924;15.474;2022-07-18T04:22:14;98777.28;;;15.84;98.47
27202;BME280;14717;46.924;15.474;2022-07-18T04:24:39;98776.22;;;15.80;98.65
27202;BME280;14717;46.924;15.474;2022-07-18T04:27:04;98777.34;;;15.98;98.51
27202;BME280;14717;46.924;15.474;2022-07-18T04:29:30;98774.69;;;16.06;98.23
27202;BME280;14717;46.924;15.474;2022-07-18T04:31:57;98773.72;;;16.29;97.13
27202;BME280;14717;46.924;15.474;2022-07-18T04:34:23;98773.03;;;16.50;95.33
27202;BME280;14717;46.924;15.474;2022-07-18T04:36:48;98776.16;;;16.62;94.85
27202;BME280;14717;46.924;15.474;2022-07-18T04:39:13;98783.00;;;16.69;94.44
27202;BME280;14717;46.924;15.474;2022-07-18T04:41:39;98782.13;;;16.82;94.07
27202;BME280;14717;46.924;15.474;2022-07-18T04:44:04;98788.47;;;16.74;94.90
27202;BME280;14717;46.924;15.474;2022-07-18T04:46:30;98780.91;;;16.75;95.70
27202;BME280;14717;46.924;15.474;2022-07-18T04:48:55;98786.41;;;16.66;95.28
27202;BME280;14717;46.924;15.474;2022-07-18T04:51:21;98782.25;;;16.64;95.61
27202;BME280;14717;46.924;15.474;2022-07-18T04:53:46;98780.81;;;16.66;95.25
27202;BME280;14717;46.924;15.474;2022-07-18T04:56:11;98778.13;;;16.75;95.16
27202;BME280;14717;46.924;15.474;2022-07-18T04:58:37;98777.91;;;16.71;95.77
27202;BME280;14717;46.924;15.474;2022-07-18T05:01:03;98780.41;;;16.86;95.66
27202;BME280;14717;46.924;15.474;2022-07-18T05:03:28;98781.00;;;17.10;93.59
27202;BME280;14717;46.924;15.474;2022-07-18T05:05:54;98769.72;;;17.28;92.51
27202;BME280;14717;46.924;15.474;2022-07-18T05:08:19;98779.03;;;17.37;91.68
27202;BME280;14717;46.924;15.474;2022-07-18T05:10:44;98768.13;;;17.49;89.57
27202;BME280;14717;46.924;15.474;2022-07-18T05:13:10;98773.59;;;17.54;91.12
27202;BME280;14717;46.924;15.474;2022-07-18T05:15:36;98770.84;;;17.41;92.90
27202;BME280;14717;46.924;15.474;2022-07-18T05:18:01;98768.22;;;17.44;91.65
27202;BME280;14717;46.924;15.474;2022-07-18T05:20:27;98773.50;;;17.46;92.66
27202;BME280;14717;46.924;15.474;2022-07-18T05:22:53;98776.53;;;17.36;92.50
27202;BME280;14717;46.924;15.474;2022-07-18T05:25:20;98771.38;;;17.64;91.45
27202;BME280;14717;46.924;15.474;2022-07-18T05:27:47;98772.22;;;17.87;90.61
27202;BME280;14717;46.924;15.474;2022-07-18T05:30:14;98760.94;;;18.13;86.71
27202;BME280;14717;46.924;15.474;2022-07-18T05:32:40;98769.06;;;18.23;85.07
27202;BME280;14717;46.924;15.474;2022-07-18T05:35:07;98764.91;;;18.42;84.53
27202;BME280;14717;46.924;15.474;2022-07-18T05:37:33;98766.13;;;18.58;84.50
27202;BME280;14717;46.924;15.474;2022-07-18T05:40:01;98773.38;;;18.59;85.82
27202;BME280;14717;46.924;15.474;2022-07-18T05:42:27;98764.41;;;18.40;85.19
27202;BME280;14717;46.924;15.474;2022-07-18T05:44:52;98767.13;;;18.62;86.91
27202;BME280;14717;46.924;15.474;2022-07-18T05:47:17;98768.69;;;18.77;85.14
27202;BME280;14717;46.924;15.474;2022-07-18T05:49:43;98766.63;;;18.99;83.28
27202;BME280;14717;46.924;15.474;2022-07-18T05:52:08;98769.34;;;19.20;83.43
27202;BME280;14717;46.924;15.474;2022-07-18T05:54:34;98766.81;;;19.02;83.65
27202;BME280;14717;46.924;15.474;2022-07-18T05:56:59;98764.88;;;19.11;84.95
27202;BME280;14717;46.924;15.474;2022-07-18T05:59:24;98763.56;;;19.17;83.48
27202;BME280;14717;46.924;15.474;2022-07-18T06:01:50;98763.94;;;19.32;84.95
27202;BME280;14717;46.924;15.474;2022-07-18T06:04:15;98764.44;;;19.34;85.62
27202;BME280;14717;46.924;15.474;2022-07-18T06:06:41;98760.53;;;19.61;83.80
27202;BME280;14717;46.924;15.474;2022-07-18T06:09:07;98760.53;;;19.69;83.45
27202;BME280;14717;46.924;15.474;2022-07-18T06:11:33;98767.44;;;19.63;84.40
27202;BME280;14717;46.924;15.474;2022-07-18T06:13:59;98759.03;;;19.63;82.24
27202;BME280;14717;46.924;15.474;2022-07-18T06:16:24;98763.34;;;19.86;80.95
27202;BME280;14717;46.924;15.474;2022-07-18T06:18:50;98761.50;;;20.23;79.09
27202;BME280;14717;46.924;15.474;2022-07-18T06:21:15;98761.25;;;20.53;79.22
27202;BME280;14717;46.924;15.474;2022-07-18T06:23:41;98761.06;;;20.67;76.28
27202;BME280;14717;46.924;15.474;2022-07-18T06:26:06;98759.38;;;20.83;74.49
27202;BME280;14717;46.924;15.474;2022-07-18T06:28:32;98762.28;;;20.94;74.36
27202;BME280;14717;46.924;15.474;2022-07-18T06:30:57;98757.41;;;21.12;74.78
27202;BME280;14717;46.924;15.474;2022-07-18T06:33:23;98754.16;;;21.30;72.88
27202;BME280;14717;46.924;15.474;2022-07-18T06:35:49;98760.66;;;21.22;74.29
27202;BME280;14717;46.924;15.474;2022-07-18T06:38:15;98766.66;;;21.41;73.95
27202;BME280;14717;46.924;15.474;2022-07-18T06:40:41;98765.75;;;21.57;73.88
27202;BME280;14717;46.924;15.474;2022-07-18T06:43:07;98766.59;;;21.58;74.00
27202;BME280;14717;46.924;15.474;2022-07-18T06:45:33;98761.16;;;21.53;72.39
27202;BME280;14717;46.924;15.474;2022-07-18T06:47:58;98760.28;;;21.61;71.04
27202;BME280;14717;46.924;15.474;2022-07-18T06:50:24;98759.53;;;21.92;70.13
27202;BME280;14717;46.924;15.474;2022-07-18T06:52:49;98753.03;;;22.12;66.91
27202;BME280;14717;46.924;15.474;2022-07-18T06:55:15;98753.19;;;22.16;67.04
27202;BME280;14717;46.924;15.474;2022-07-18T06:57:41;98750.59;;;22.43;67.86
27202;BME280;14717;46.924;15.474;2022-07-18T07:00:08;98745.34;;;22.53;67.96
27202;BME280;14717;46.924;15.474;2022-07-18T07:02:39;98745.91;;;22.47;65.38
27202;BME280;14717;46.924;15.474;2022-07-18T07:05:05;98743.66;;;22.40;60.74
27202;BME280;14717;46.924;15.474;2022-07-18T07:07:30;98747.31;;;22.41;57.29
27202;BME280;14717;46.924;15.474;2022-07-18T07:09:56;98745.72;;;22.64;58.38
27202;BME280;14717;46.924;15.474;2022-07-18T07:12:21;98742.91;;;22.64;57.84
27202;BME280;14717;46.924;15.474;2022-07-18T07:14:46;98742.34;;;22.82;57.25
27202;BME280;14717;46.924;15.474;2022-07-18T07:17:12;98737.78;;;22.89;57.06
27202;BME280;14717;46.924;15.474;2022-07-18T07:19:37;98749.56;;;23.03;57.75
27202;BME280;14717;46.924;15.474;2022-07-18T07:22:03;98747.25;;;23.17;60.82
27202;BME280;14717;46.924;15.474;2022-07-18T07:24:28;98731.94;;;23.42;58.61
27202;BME280;14717;46.924;15.474;2022-07-18T07:26:54;98733.44;;;23.75;61.72
27202;BME280;14717;46.924;15.474;2022-07-18T07:29:19;98737.22;;;23.94;58.91
27202;BME280;14717;46.924;15.474;2022-07-18T07:31:45;98741.91;;;23.51;57.70
27202;BME280;14717;46.924;15.474;2022-07-18T07:34:10;98742.63;;;23.48;57.82
27202;BME280;14717;46.924;15.474;2022-07-18T07:36:36;98728.38;;;23.68;57.64
27202;BME280;14717;46.924;15.474;2022-07-18T07:39:02;98733.25;;;23.95;55.19
27202;BME280;14717;46.924;15.474;2022-07-18T07:41:28;98730.88;;;23.97;55.73
27202;BME280;14717;46.924;15.474;2022-07-18T07:43:54;98738.63;;;24.00;55.11
27202;BME280;14717;46.924;15.474;2022-07-18T07:46:19;98731.59;;;23.94;59.53
27202;BME280;14717;46.924;15.474;2022-07-18T07:48:45;98734.69;;;24.16;56.52
27202;BME280;14717;46.924;15.474;2022-07-18T07:51:13;98736.44;;;24.21;55.38
27202;BME280;14717;46.924;15.474;2022-07-18T07:53:38;98733.72;;;24.51;56.77
27202;BME280;14717;46.924;15.474;2022-07-18T07:56:04;98726.09;;;24.67;56.69
27202;BME280;14717;46.924;15.474;2022-07-18T07:58:29;98733.13;;;24.73;56.72
27202;BME280;14717;46.924;15.474;2022-07-18T08:00:54;98733.06;;;24.85;55.93
27202;BME280;14717;46.924;15.474;2022-07-18T08:03:20;98716.34;;;25.11;57.87
27202;BME280;14717;46.924;15.474;2022-07-18T08:05:48;98730.03;;;25.39;52.43
27202;BME280;14717;46.924;15.474;2022-07-18T08:08:14;98721.53;;;25.39;52.23
27202;BME280;14717;46.924;15.474;2022-07-18T08:10:41;98717.91;;;25.39;52.71
27202;BME280;14717;46.924;15.474;2022-07-18T08:13:06;98713.25;;;25.31;55.03
27202;BME280;14717;46.924;15.474;2022-07-18T08:15:32;98718.34;;;25.41;52.94
27202;BME280;14717;46.924;15.474;2022-07-18T08:17:58;98719.38;;;25.33;53.89
27202;BME280;14717;46.924;15.474;2022-07-18T08:20:24;98718.75;;;25.09;52.38
27202;BME280;14717;46.924;15.474;2022-07-18T08:22:56;98716.84;;;25.47;52.15
27202;BME280;14717;46.924;15.474;2022-07-18T08:25:23;98713.94;;;25.43;54.51
27202;BME280;14717;46.924;15.474;2022-07-18T08:27:48;98710.91;;;25.52;51.60
27202;BME280;14717;46.924;15.474;2022-07-18T08:30:14;98714.44;;;25.79;50.28
27202;BME280;14717;46.924;15.474;2022-07-18T08:32:39;98721.16;;;25.90;52.05
27202;BME280;14717;46.924;15.474;2022-07-18T08:35:06;98720.84;;;26.14;49.92
27202;BME280;14717;46.924;15.474;2022-07-18T08:37:32;98724.44;;;25.92;48.95
27202;BME280;14717;46.924;15.474;2022-07-18T08:39:57;98713.03;;;26.08;49.39
27202;BME280;14717;46.924;15.474;2022-07-18T08:42:25;98720.97;;;26.36;49.85
27202;BME280;14717;46.924;15.474;2022-07-18T08:44:55;98719.25;;;26.51;50.19
27202;BME280;14717;46.924;15.474;2022-07-18T08:47:22;98720.06;;;26.32;49.90
27202;BME280;14717;46.924;15.474;2022-07-18T08:49:49;98716.72;;;26.27;49.39
27202;BME280;14717;46.924;15.474;2022-07-18T08:52:15;98715.59;;;26.31;49.76
27202;BME280;14717;46.924;15.474;2022-07-18T08:54:41;98718.09;;;26.55;51.19
27202;BME280;14717;46.924;15.474;2022-07-18T08:57:07;98718.25;;;26.62;52.91
27202;BME280;14717;46.924;15.474;2022-07-18T08:59:33;98710.13;;;26.60;48.79
27202;BME280;14717;46.924;15.474;2022-07-18T09:01:58;98714.78;;;26.31;47.99
27202;BME280;14717;46.924;15.474;2022-07-18T09:04:42;98708.03;;;26.57;49.29
27202;BME280;14717;46.924;15.474;2022-07-18T09:07:09;98704.66;;;26.52;49.39
27202;BME280;14717;46.924;15.474;2022-07-18T09:09:36;98706.00;;;26.58;49.87
27202;BME280;14717;46.924;15.474;2022-07-18T09:12:04;98706.41;;;26.79;47.36
27202;BME280;14717;46.924;15.474;2022-07-18T09:17:10;98707.50;;;27.38;46.70
27202;BME280;14717;46.924;15.474;2022-07-18T09:19:38;98703.63;;;27.49;46.30
27202;BME280;14717;46.924;15.474;2022-07-18T09:22:22;98700.97;;;27.11;48.51
27202;BME280;14717;46.924;15.474;2022-07-18T09:27:39;98697.50;;;27.73;44.53
27202;BME280;14717;46.924;15.474;2022-07-18T09:35:50;98700.69;;;27.68;40.37
27202;BME280;14717;46.924;15.474;2022-07-18T09:38:16;98694.03;;;27.86;41.18
27202;BME280;14717;46.924;15.474;2022-07-18T09:40:43;98700.78;;;27.49;40.44
27202;BME280;14717;46.924;15.474;2022-07-18T09:43:11;98702.66;;;27.42;39.96
27202;BME280;14717;46.924;15.474;2022-07-18T09:48:06;98702.94;;;28.10;40.12
27202;BME280;14717;46.924;15.474;2022-07-18T09:50:49;98692.84;;;28.16;37.98
27202;BME280;14717;46.924;15.474;2022-07-18T09:53:16;98689.09;;;28.09;40.26
27202;BME280;14717;46.924;15.474;2022-07-18T09:55:47;98695.50;;;28.02;39.89
27202;BME280;14717;46.924;15.474;2022-07-18T09:58:21;98690.13;;;27.97;39.43
27202;BME280;14717;46.924;15.474;2022-07-18T10:00:47;98689.09;;;28.09;39.09
27202;BME280;14717;46.924;15.474;2022-07-18T10:03:14;98693.34;;;27.67;37.43
27202;BME280;14717;46.924;15.474;2022-07-18T10:05:41;98685.81;;;27.78;37.43
27202;BME280;14717;46.924;15.474;2022-07-18T10:08:10;98683.81;;;27.82;38.64
27202;BME280;14717;46.924;15.474;2022-07-18T10:10:37;98683.53;;;27.61;38.43
27202;BME280;14717;46.924;15.474;2022-07-18T10:13:04;98685.00;;;28.06;37.86
27202;BME280;14717;46.924;15.474;2022-07-18T10:15:33;98682.78;;;28.22;38.18
27202;BME280;14717;46.924;15.474;2022-07-18T10:18:06;98684.66;;;28.44;38.48
27202;BME280;14717;46.924;15.474;2022-07-18T10:20:35;98679.38;;;28.46;38.38
27202;BME280;14717;46.924;15.474;2022-07-18T10:23:09;98673.00;;;28.56;38.62
27202;BME280;14717;46.924;15.474;2022-07-18T10:25:36;98680.28;;;28.50;37.17
27202;BME280;14717;46.924;15.474;2022-07-18T10:28:06;98665.03;;;28.32;41.65
27202;BME280;14717;46.924;15.474;2022-07-18T10:30:52;98672.97;;;28.20;37.05
27202;BME280;14717;46.924;15.474;2022-07-18T10:33:44;98659.66;;;28.60;36.54
27202;BME280;14717;46.924;15.474;2022-07-18T10:36:18;98667.91;;;28.68;36.92
27202;BME280;14717;46.924;15.474;2022-07-18T10:39:14;98659.03;;;28.76;36.46
27202;BME280;14717;46.924;15.474;2022-07-18T10:57:28;98655.75;;;28.74;38.15
27202;BME280;14717;46.924;15.474;2022-07-18T11:02:46;98645.50;;;29.10;36.87
27202;BME280;14717;46.924;15.474;2022-07-18T11:16:15;98633.25;;;29.02;37.93
27202;BME280;14717;46.924;15.474;2022-07-18T11:23:49;98626.44;;;29.74;36.55
27202;BME280;14717;46.924;15.474;2022-07-18T11:26:17;98626.94;;;29.86;36.28
27202;BME280;14717;46.924;15.474;2022-07-18T11:28:44;98619.16;;;29.76;35.29
27202;BME280;14717;46.924;15.474;2022-07-18T11:31:12;98615.34;;;29.55;35.77
27202;BME280;14717;46.924;15.474;2022-07-18T11:33:46;98612.66;;;29.79;35.89
27202;BME280;14717;46.924;15.474;2022-07-18T11:36:14;98607.06;;;29.36;35.21
27202;BME280;14717;46.924;15.474;2022-07-18T11:38:47;98606.75;;;29.45;33.52
27202;BME280;14717;46.924;15.474;2022-07-18T11:41:13;98613.88;;;29.78;33.24
27202;BME280;14717;46.924;15.474;2022-07-18T11:43:38;98610.03;;;29.54;33.57
27202;BME280;14717;46.924;15.474;2022-07-18T11:46:09;98604.09;;;29.76;35.12
27202;BME280;14717;46.924;15.474;2022-07-18T11:48:36;98604.03;;;29.72;34.75
27202;BME280;14717;46.924;15.474;2022-07-18T11:51:08;98614.94;;;29.57;31.58
27202;BME280;14717;46.924;15.474;2022-07-18T11:53:34;98605.44;;;29.35;32.66
27202;BME280;14717;46.924;15.474;2022-07-18T11:56:03;98601.31;;;29.90;33.86
27202;BME280;14717;46.924;15.474;2022-07-18T11:58:35;98596.00;;;29.88;34.40
27202;BME280;14717;46.924;15.474;2022-07-18T12:01:02;98589.25;;;30.31;32.08
27202;BME280;14717;46.924;15.474;2022-07-18T12:03:29;98596.63;;;30.52;32.08
27202;BME280;14717;46.924;15.474;2022-07-18T12:05:55;98584.41;;;30.45;32.19
27202;BME280;14717;46.924;15.474;2022-07-18T12:16:47;98584.81;;;29.56;30.33
27202;BME280;14717;46.924;15.474;2022-07-18T12:19:17;98590.63;;;29.73;28.99
27202;BME280;14717;46.924;15.474;2022-07-18T12:24:26;98579.53;;;30.66;29.30
27202;BME280;14717;46.924;15.474;2022-07-18T12:27:15;98573.88;;;31.01;29.49
27202;BME280;14717;46.924;15.474;2022-07-18T12:37:33;98568.13;;;30.73;29.05
27202;BME280;14717;46.924;15.474;2022-07-18T12:40:00;98572.19;;;30.69;28.83
27202;BME280;14717;46.924;15.474;2022-07-18T12:42:40;98575.91;;;30.90;28.85
27202;BME280;14717;46.924;15.474;2022-07-18T12:45:07;98573.00;;;30.69;28.46
27202;BME280;14717;46.924;15.474;2022-07-18T12:47:33;98570.50;;;30.33;28.58
27202;BME280;14717;46.924;15.474;2022-07-18T12:49:59;98564.03;;;30.67;30.01
27202;BME280;14717;46.924;15.474;2022-07-18T12:52:25;98563.19;;;30.53;28.76
27202;BME280;14717;46.924;15.474;2022-07-18T12:54:50;98567.75;;;30.85;30.14
27202;BME280;14717;46.924;15.474;2022-07-18T12:57:17;98566.44;;;30.34;29.36
27202;BME280;14717;46.924;15.474;2022-07-18T12:59:43;98561.13;;;30.36;29.42
27202;BME280;14717;46.924;15.474;2022-07-18T13:02:08;98561.47;;;30.17;29.17
27202;BME280;14717;46.924;15.474;2022-07-18T13:04:34;98563.47;;;30.13;29.29
27202;BME280;14717;46.924;15.474;2022-07-18T13:07:00;98568.09;;;30.59;30.26
27202;BME280;14717;46.924;15.474;2022-07-18T13:09:25;98560.78;;;30.62;30.78
27202;BME280;14717;46.924;15.474;2022-07-18T13:11:51;98561.56;;;30.59;29.28
27202;BME280;14717;46.924;15.474;2022-07-18T13:14:17;98557.91;;;30.72;31.31
27202;BME280;14717;46.924;15.474;2022-07-18T13:16:44;98556.16;;;30.09;31.78
27202;BME280;14717;46.924;15.474;2022-07-18T13:19:14;98557.38;;;30.22;31.30
27202;BME280;14717;46.924;15.474;2022-07-18T13:21:40;98546.75;;;30.08;31.73
27202;BME280;14717;46.924;15.474;2022-07-18T13:24:06;98544.44;;;30.55;30.71
27202;BME280;14717;46.924;15.474;2022-07-18T13:26:32;98543.22;;;30.53;29.65
27202;BME280;14717;46.924;15.474;2022-07-18T13:28:57;98550.16;;;30.66;30.12
27202;BME280;14717;46.924;15.474;2022-07-18T13:31:23;98544.44;;;30.55;30.70
27202;BME280;14717;46.924;15.474;2022-07-18T13:33:48;98538.72;;;30.38;30.10
27202;BME280;14717;46.924;15.474;2022-07-18T13:36:16;98527.72;;;30.57;29.61
27202;BME280;14717;46.924;15.474;2022-07-18T13:38:41;98535.06;;;30.72;29.32
27202;BME280;14717;46.924;15.474;2022-07-18T13:41:06;98537.56;;;30.91;28.94
27202;BME280;14717;46.924;15.474;2022-07-18T13:43:33;98528.53;;;30.72;29.13
27202;BME280;14717;46.924;15.474;2022-07-18T13:45:59;98526.50;;;30.69;27.78
27202;BME280;14717;46.924;15.474;2022-07-18T13:48:25;98520.41;;;30.63;27.66
27202;BME280;14717;46.924;15.474;2022-07-18T13:50:50;98520.78;;;30.83;26.99
27202;BME280;14717;46.924;15.474;2022-07-18T13:53:16;98529.38;;;31.00;29.40
27202;BME280;14717;46.924;15.474;2022-07-18T13:55:41;98530.16;;;30.73;30.23